createdAt,value
2023-01-20T00:01:48.336Z,0.30
2023-01-20T00:04:19.266Z,0.30
2023-01-20T00:06:47.199Z,0.20
2023-01-20T00:09:18.218Z,0.20
2023-01-20T00:11:46.478Z,0.30
2023-01-20T00:14:13.911Z,0.20
2023-01-20T00:16:41.031Z,0.20
2023-01-20T00:19:08.110Z,0.20
2023-01-20T00:21:38.022Z,0.10
2023-01-20T00:24:05.535Z,0.10
2023-01-20T00:26:32.568Z,0.10
2023-01-20T00:28:59.599Z,0.10
2023-01-20T00:31:30.098Z,0.10
2023-01-20T00:33:59.396Z,0.00
2023-01-20T00:36:28.083Z,0.00
2023-01-20T00:38:55.177Z,0.00
2023-01-20T00:41:22.249Z,0.00
2023-01-20T00:43:49.572Z,0.00
2023-01-20T00:46:16.691Z,0.10
2023-01-20T00:48:43.905Z,0.10
2023-01-20T00:51:11.138Z,0.10
2023-01-20T00:53:38.445Z,0.10
2023-01-20T00:56:06.317Z,0.10
2023-01-20T00:58:33.570Z,0.10
2023-01-20T01:01:01.415Z,0.10
2023-01-20T01:03:29.122Z,0.00
2023-01-20T01:06:13.802Z,0.00
2023-01-20T01:08:41.314Z,0.10
2023-01-20T01:11:09.090Z,0.10
2023-01-20T01:13:37.418Z,0.10
2023-01-20T01:16:08.662Z,0.10
2023-01-20T01:18:35.702Z,0.10
2023-01-20T01:21:08.205Z,0.10
2023-01-20T01:23:35.321Z,0.20
2023-01-20T01:26:02.806Z,0.20
2023-01-20T01:28:29.899Z,0.10
2023-01-20T01:31:01.263Z,0.10
2023-01-20T01:33:29.296Z,0.10
2023-01-20T01:36:01.361Z,0.10
2023-01-20T01:38:29.229Z,0.20
2023-01-20T01:40:56.665Z,0.20
2023-01-20T01:43:24.701Z,0.10
2023-01-20T01:45:51.939Z,0.20
2023-01-20T01:48:23.726Z,0.10
2023-01-20T01:51:06.001Z,0.10
2023-01-20T01:53:40.649Z,0.10
2023-01-20T01:56:08.916Z,0.10
2023-01-20T01:58:38.882Z,0.10
2023-01-20T02:01:25.878Z,0.10
2023-01-20T02:03:59.907Z,0.10
2023-01-20T02:06:35.237Z,0.10
2023-01-20T02:09:04.500Z,0.10
2023-01-20T02:11:36.992Z,0.10
2023-01-20T02:14:04.609Z,0.10
2023-01-20T02:16:52.650Z,0.10
2023-01-20T02:19:25.522Z,0.00
2023-01-20T02:22:07.984Z,-0.10
2023-01-20T02:24:54.042Z,-0.10
2023-01-20T02:27:41.250Z,-0.20
2023-01-20T02:30:38.690Z,-0.10
2023-01-20T02:33:17.616Z,-0.10
2023-01-20T02:35:53.669Z,-0.20
2023-01-20T02:38:29.433Z,-0.10
2023-01-20T02:41:08.482Z,-0.10
2023-01-20T02:43:51.485Z,-0.10
2023-01-20T02:46:33.492Z,-0.10
2023-01-20T02:49:26.029Z,-0.10
2023-01-20T02:52:03.386Z,-0.10
2023-01-20T02:54:34.942Z,-0.10
2023-01-20T02:57:05.563Z,-0.10
2023-01-20T02:59:36.539Z,-0.10
2023-01-20T03:02:08.972Z,-0.10
2023-01-20T03:04:50.531Z,-0.10
2023-01-20T03:07:20.126Z,-0.10
2023-01-20T03:09:51.777Z,-0.10
2023-01-20T03:12:24.666Z,-0.10
2023-01-20T03:14:53.151Z,-0.10
2023-01-20T03:17:21.046Z,-0.10
2023-01-20T03:19:48.966Z,-0.10
2023-01-20T03:22:16.680Z,-0.10
2023-01-20T03:24:45.099Z,-0.10
2023-01-20T03:27:13.173Z,-0.10
2023-01-20T03:29:40.266Z,-0.10
2023-01-20T03:32:10.630Z,0.00
2023-01-20T03:34:41.993Z,-0.10
2023-01-20T03:37:10.663Z,-0.10
2023-01-20T03:39:40.278Z,-0.10
2023-01-20T03:42:24.735Z,-0.10
2023-01-20T03:44:57.686Z,-0.10
2023-01-20T03:47:48.582Z,-0.10
2023-01-20T03:50:27.993Z,0.00
2023-01-20T03:53:05.490Z,-0.10
2023-01-20T03:55:40.982Z,-0.10
2023-01-20T03:58:24.238Z,-0.10
2023-01-20T04:00:52.843Z,-0.10
2023-01-20T04:03:25.730Z,0.00
2023-01-20T04:05:53.383Z,-0.10
2023-01-20T04:08:24.743Z,-0.10
2023-01-20T04:10:53.235Z,-0.10
2023-01-20T04:13:20.390Z,-0.10
2023-01-20T04:15:48.473Z,0.00
2023-01-20T04:18:17.075Z,0.00
2023-01-20T04:20:54.766Z,0.00
2023-01-20T04:23:32.395Z,0.00
2023-01-20T04:25:59.556Z,0.00
2023-01-20T04:28:26.743Z,-0.10
2023-01-20T04:30:53.962Z,0.00
2023-01-20T04:33:21.140Z,-0.10
2023-01-20T04:35:48.191Z,-0.10
2023-01-20T04:38:15.377Z,-0.10
2023-01-20T04:40:42.602Z,-0.10
2023-01-20T04:43:10.398Z,-0.20
2023-01-20T04:45:37.661Z,-0.20
2023-01-20T04:48:09.130Z,-0.20
2023-01-20T04:50:40.930Z,-0.20
2023-01-20T04:53:11.159Z,-0.30
2023-01-20T04:55:38.220Z,-0.30
2023-01-20T04:58:05.381Z,-0.30
2023-01-20T05:00:32.491Z,-0.30
2023-01-20T05:03:00.155Z,-0.30
2023-01-20T05:05:27.236Z,-0.30
2023-01-20T05:07:55.576Z,-0.30
2023-01-20T05:10:22.588Z,-0.30
2023-01-20T05:12:49.623Z,-0.30
2023-01-20T05:15:17.073Z,-0.30
2023-01-20T05:17:44.418Z,-0.30
2023-01-20T05:20:11.753Z,-0.30
2023-01-20T05:22:38.869Z,-0.40
2023-01-20T05:25:06.621Z,-0.40
2023-01-20T05:27:37.550Z,-0.40
2023-01-20T05:30:06.239Z,-0.40
2023-01-20T05:32:33.278Z,-0.40
2023-01-20T05:35:00.279Z,-0.40
2023-01-20T05:37:27.368Z,-0.40
2023-01-20T05:39:54.435Z,-0.40
2023-01-20T05:42:21.477Z,-0.40
2023-01-20T05:44:48.560Z,-0.50
2023-01-20T05:47:15.841Z,-0.40
2023-01-20T05:49:43.149Z,-0.50
2023-01-20T05:52:10.255Z,-0.50
2023-01-20T05:54:37.330Z,-0.50
2023-01-20T05:57:05.820Z,-0.50
2023-01-20T05:59:32.957Z,-0.50
2023-01-20T06:02:00.063Z,-0.50
2023-01-20T06:04:27.379Z,-0.50
2023-01-20T06:06:54.498Z,-0.50
2023-01-20T06:09:21.994Z,-0.50
2023-01-20T06:11:49.123Z,-0.60
2023-01-20T06:14:16.226Z,-0.60
2023-01-20T06:16:43.352Z,-0.50
2023-01-20T06:19:10.415Z,-0.60
2023-01-20T06:21:37.427Z,-0.60
2023-01-20T06:24:04.800Z,-0.60
2023-01-20T06:26:32.023Z,-0.60
2023-01-20T06:29:00.716Z,-0.60
2023-01-20T06:31:31.156Z,-0.50
2023-01-20T06:33:58.235Z,-0.60
2023-01-20T06:36:25.469Z,-0.60
2023-01-20T06:38:53.286Z,-0.60
2023-01-20T06:41:20.958Z,-0.60
2023-01-20T06:43:50.256Z,-0.60
2023-01-20T06:46:17.673Z,-0.60
2023-01-20T06:48:45.952Z,-0.60
2023-01-20T06:51:19.464Z,-0.60
2023-01-20T06:53:47.320Z,-0.60
2023-01-20T06:56:15.817Z,-0.60
2023-01-20T06:58:43.117Z,-0.60
2023-01-20T07:01:20.855Z,-0.60
2023-01-20T07:03:48.011Z,-0.60
2023-01-20T07:06:18.371Z,-0.60
2023-01-20T07:08:46.165Z,-0.60
2023-01-20T07:11:13.527Z,-0.60
2023-01-20T07:13:40.709Z,-0.60
2023-01-20T07:16:11.038Z,-0.60
2023-01-20T07:18:39.506Z,-0.70
2023-01-20T07:21:07.109Z,-0.70
2023-01-20T07:23:34.174Z,-0.60
2023-01-20T07:26:06.646Z,-0.70
2023-01-20T07:28:34.779Z,-0.70
2023-01-20T07:31:05.641Z,-0.60
2023-01-20T07:33:33.774Z,-0.60
2023-01-20T07:36:02.057Z,-0.70
2023-01-20T07:38:29.785Z,-0.60
2023-01-20T07:41:02.518Z,-0.60
2023-01-20T07:43:31.750Z,-0.60
2023-01-20T07:46:00.754Z,-0.60
2023-01-20T07:48:29.912Z,-0.60
2023-01-20T07:51:07.531Z,-0.60
2023-01-20T07:53:47.104Z,-0.60
2023-01-20T07:56:25.689Z,-0.60
2023-01-20T07:58:54.229Z,-0.60
2023-01-20T08:01:27.897Z,-0.50
2023-01-20T08:03:55.986Z,-0.50
2023-01-20T08:06:25.098Z,-0.40
2023-01-20T08:08:52.332Z,-0.40
2023-01-20T08:11:21.418Z,-0.40
2023-01-20T08:13:48.951Z,-0.30
2023-01-20T08:16:17.752Z,-0.40
2023-01-20T08:18:45.317Z,-0.40
2023-01-20T08:21:19.269Z,-0.40
2023-01-20T08:23:46.593Z,-0.30
2023-01-20T08:26:13.670Z,-0.30
2023-01-20T08:28:40.746Z,-0.20
2023-01-20T08:31:11.210Z,-0.20
2023-01-20T08:33:39.445Z,-0.10
2023-01-20T08:36:11.586Z,-0.10
2023-01-20T08:38:39.401Z,-0.10
2023-01-20T08:41:12.093Z,0.00
2023-01-20T08:43:39.552Z,-0.10
2023-01-20T08:46:09.521Z,0.00
2023-01-20T08:48:37.719Z,0.00
2023-01-20T08:51:10.869Z,0.10
2023-01-20T08:53:38.034Z,0.10
2023-01-20T08:56:05.367Z,0.20
2023-01-20T08:58:34.412Z,0.20
2023-01-20T09:01:01.522Z,0.30
2023-01-20T09:03:28.713Z,0.30
2023-01-20T09:05:55.784Z,0.40
2023-01-20T09:08:27.129Z,0.40
2023-01-20T09:10:54.495Z,0.40
2023-01-20T09:13:21.539Z,0.50
2023-01-20T09:15:52.870Z,0.50
2023-01-20T09:18:19.901Z,0.60
2023-01-20T09:20:46.998Z,0.60
2023-01-20T09:23:14.163Z,0.60
2023-01-20T09:25:41.203Z,0.60
2023-01-20T09:28:08.373Z,0.60
2023-01-20T09:30:35.435Z,0.60
2023-01-20T09:33:02.536Z,0.60
2023-01-20T09:35:29.624Z,0.60
2023-01-20T09:38:15.394Z,0.50
2023-01-20T09:41:37.828Z,0.40
2023-01-20T09:44:22.854Z,0.30
2023-01-20T09:47:12.872Z,0.20
2023-01-20T09:50:24.608Z,0.20
2023-01-20T09:53:04.861Z,0.30
2023-01-20T09:55:41.147Z,0.50
2023-01-20T09:58:29.915Z,0.70
2023-01-20T10:01:14.351Z,1.00
2023-01-20T10:03:48.639Z,1.10
2023-01-20T10:06:37.153Z,1.10
2023-01-20T10:09:14.121Z,1.20
2023-01-20T10:11:44.560Z,1.20
2023-01-20T10:14:22.980Z,1.20
2023-01-20T10:17:23.505Z,1.10
2023-01-20T10:20:04.211Z,1.10
2023-01-20T10:22:46.905Z,1.10
2023-01-20T10:25:26.364Z,1.00
2023-01-20T10:27:57.656Z,1.00
2023-01-20T10:30:30.751Z,1.10
2023-01-20T10:33:13.133Z,1.20
2023-01-20T10:35:46.430Z,1.20
2023-01-20T10:38:37.153Z,1.20
2023-01-20T10:41:19.470Z,1.30
2023-01-20T10:43:50.508Z,1.30
2023-01-20T10:46:17.635Z,1.30
2023-01-20T10:48:54.814Z,1.30
2023-01-20T10:51:47.144Z,1.30
2023-01-20T10:54:14.096Z,1.30
2023-01-20T10:56:53.867Z,1.40
2023-01-20T10:59:31.788Z,1.40
2023-01-20T11:02:11.873Z,1.40
2023-01-20T11:04:39.306Z,1.40
2023-01-20T11:07:13.130Z,1.30
2023-01-20T11:09:42.099Z,1.40
2023-01-20T11:12:18.529Z,1.60
2023-01-20T11:14:47.920Z,1.70
2023-01-20T11:17:20.574Z,1.70
2023-01-20T11:19:58.300Z,1.70
2023-01-20T11:22:34.281Z,1.60
2023-01-20T11:25:04.396Z,1.60
2023-01-20T11:27:41.475Z,1.60
2023-01-20T11:30:26.356Z,1.60
2023-01-20T11:33:17.464Z,1.60
2023-01-20T11:36:03.326Z,1.50
2023-01-20T11:38:43.449Z,1.50
2023-01-20T11:41:25.211Z,1.60
2023-01-20T11:43:57.398Z,1.60
2023-01-20T11:46:32.410Z,1.70
2023-01-20T11:49:19.667Z,1.80
2023-01-20T11:51:55.289Z,1.80
2023-01-20T11:54:25.314Z,1.80
2023-01-20T11:56:57.147Z,1.90
2023-01-20T11:59:33.010Z,1.90
2023-01-20T12:02:04.607Z,1.90
2023-01-20T12:04:47.971Z,1.90
2023-01-20T12:07:30.789Z,1.90
2023-01-20T12:10:24.587Z,1.80
2023-01-20T12:13:02.155Z,1.70
2023-01-20T12:15:45.587Z,1.90
2023-01-20T12:18:36.300Z,1.80
2023-01-20T12:21:18.559Z,1.80
2023-01-20T12:24:02.988Z,1.80
2023-01-20T12:26:34.434Z,1.70
2023-01-20T12:29:10.701Z,1.70
2023-01-20T12:31:37.941Z,1.70
2023-01-20T12:34:11.562Z,1.60
2023-01-20T12:37:08.278Z,1.60
2023-01-20T12:39:45.957Z,1.70
2023-01-20T12:42:31.455Z,1.70
2023-01-20T12:45:01.299Z,1.70
2023-01-20T12:47:37.427Z,1.80
2023-01-20T12:50:32.204Z,1.90
2023-01-20T12:52:59.229Z,1.90
2023-01-20T12:55:29.187Z,2.00
2023-01-20T12:58:24.887Z,2.00
2023-01-20T13:01:25.955Z,1.90
2023-01-20T13:04:15.428Z,1.80
2023-01-20T13:07:04.348Z,1.60
2023-01-20T13:10:09.846Z,1.60
2023-01-20T13:12:45.790Z,1.50
2023-01-20T13:15:29.228Z,1.50
2023-01-20T13:18:11.474Z,1.50
2023-01-20T13:20:41.308Z,1.60
2023-01-20T13:23:15.069Z,1.60
2023-01-20T13:25:44.549Z,1.70
2023-01-20T13:28:24.052Z,1.70
2023-01-20T13:30:54.422Z,1.60
2023-01-20T13:33:40.665Z,1.60
2023-01-20T13:36:27.976Z,1.70
2023-01-20T13:39:33.829Z,1.60
2023-01-20T13:42:00.888Z,1.60
2023-01-20T13:44:41.466Z,1.60
2023-01-20T13:47:11.084Z,1.50
2023-01-20T13:49:44.272Z,1.40
2023-01-20T13:52:12.202Z,1.40
2023-01-20T13:54:44.554Z,1.40
2023-01-20T13:57:23.305Z,1.40
2023-01-20T13:59:50.895Z,1.30
2023-01-20T14:02:19.450Z,1.30
2023-01-20T14:04:47.605Z,1.30
2023-01-20T14:07:29.990Z,1.20
2023-01-20T14:09:59.939Z,1.20
2023-01-20T14:12:28.036Z,1.20
2023-01-20T14:14:55.452Z,1.20
2023-01-20T14:17:24.713Z,1.10
2023-01-20T14:19:54.720Z,1.10
2023-01-20T14:22:32.342Z,1.10
2023-01-20T14:25:00.998Z,1.10
2023-01-20T14:27:37.523Z,1.20
2023-01-20T14:30:26.170Z,1.20
2023-01-20T14:32:54.201Z,1.00
2023-01-20T14:35:32.412Z,0.90
2023-01-20T14:37:59.905Z,0.80
2023-01-20T14:40:31.235Z,0.80
2023-01-20T14:43:13.503Z,0.80
2023-01-20T14:45:43.813Z,0.70
2023-01-20T14:48:19.133Z,0.60
2023-01-20T14:50:54.168Z,0.60
2023-01-20T14:53:21.206Z,0.50
2023-01-20T14:56:05.191Z,0.40
2023-01-20T14:58:32.336Z,0.40
2023-01-20T15:01:05.460Z,0.30
2023-01-20T15:03:32.983Z,0.30
2023-01-20T15:06:00.986Z,0.30
2023-01-20T15:09:06.197Z,0.30
2023-01-20T15:11:34.670Z,0.20
2023-01-20T15:14:05.772Z,0.20
2023-01-20T15:16:47.573Z,0.10
2023-01-20T15:19:18.514Z,0.10
2023-01-20T15:21:53.517Z,0.10
2023-01-20T15:24:21.803Z,0.10
2023-01-20T15:26:51.992Z,0.00
2023-01-20T15:29:24.492Z,0.00
2023-01-20T15:31:53.100Z,0.00
2023-01-20T15:34:21.461Z,0.00
2023-01-20T15:36:50.439Z,-0.10
2023-01-20T15:39:21.087Z,-0.10
2023-01-20T15:41:48.959Z,-0.10
2023-01-20T15:44:16.235Z,-0.10
2023-01-20T15:46:43.267Z,-0.10
2023-01-20T15:49:17.455Z,-0.20
2023-01-20T15:51:45.324Z,-0.20
2023-01-20T15:54:14.043Z,-0.20
2023-01-20T15:56:43.127Z,-0.20
2023-01-20T15:59:17.319Z,-0.20
2023-01-20T16:01:50.232Z,-0.20
2023-01-20T16:04:17.763Z,-0.30
2023-01-20T16:06:45.392Z,-0.30
2023-01-20T16:09:27.115Z,-0.30
2023-01-20T16:11:55.492Z,-0.30
2023-01-20T16:14:22.562Z,-0.30
2023-01-20T16:16:49.692Z,-0.30
2023-01-20T16:19:17.296Z,-0.30
2023-01-20T16:21:45.591Z,-0.40
2023-01-20T16:24:13.124Z,-0.40
2023-01-20T16:26:40.196Z,-0.50
2023-01-20T16:29:09.592Z,-0.50
2023-01-20T16:31:36.967Z,-0.40
2023-01-20T16:34:05.128Z,-0.50
2023-01-20T16:36:32.248Z,-0.50
2023-01-20T16:38:59.290Z,-0.50
2023-01-20T16:41:31.043Z,-0.50
2023-01-20T16:43:58.662Z,-0.50
2023-01-20T16:46:30.145Z,-0.50
2023-01-20T16:49:02.183Z,-0.40
2023-01-20T16:51:30.740Z,-0.50
2023-01-20T16:53:59.868Z,-0.50
2023-01-20T16:56:29.849Z,-0.60
2023-01-20T16:58:59.135Z,-0.60
2023-01-20T17:01:26.437Z,-0.60
2023-01-20T17:03:55.554Z,-0.60
2023-01-20T17:06:25.474Z,-0.70
2023-01-20T17:08:54.858Z,-0.80
2023-01-20T17:11:24.713Z,-0.80
2023-01-20T17:13:52.654Z,-0.90
2023-01-20T17:16:20.918Z,-1.00
2023-01-20T17:18:55.837Z,-1.00
2023-01-20T17:21:24.436Z,-1.00
2023-01-20T17:23:53.464Z,-1.10
2023-01-20T17:26:21.815Z,-1.10
2023-01-20T17:28:49.389Z,-1.10
2023-01-20T17:31:16.495Z,-1.00
2023-01-20T17:33:47.555Z,-1.10
2023-01-20T17:36:16.906Z,-1.10
2023-01-20T17:38:44.404Z,-1.10
2023-01-20T17:41:13.025Z,-1.20
2023-01-20T17:43:43.088Z,-1.20
2023-01-20T17:46:22.398Z,-1.20
2023-01-20T17:48:50.601Z,-1.20
2023-01-20T17:51:23.299Z,-1.30
2023-01-20T17:53:53.854Z,-1.30
2023-01-20T17:56:22.432Z,-1.40
2023-01-20T17:58:50.385Z,-1.30
2023-01-20T18:01:27.330Z,-1.30
2023-01-20T18:03:56.846Z,-1.30
2023-01-20T18:06:25.466Z,-1.30
2023-01-20T18:08:55.034Z,-1.20
2023-01-20T18:11:27.239Z,-1.20
2023-01-20T18:13:56.880Z,-1.20
2023-01-20T18:16:27.860Z,-1.20
2023-01-20T18:18:58.904Z,-1.10
2023-01-20T18:21:34.693Z,-1.00
2023-01-20T18:24:03.169Z,-1.00
2023-01-20T18:26:33.475Z,-1.10
2023-01-20T18:29:10.913Z,-1.10
2023-01-20T18:31:38.434Z,-1.10
2023-01-20T18:34:08.820Z,-1.10
2023-01-20T18:36:54.606Z,-1.10
2023-01-20T18:39:25.281Z,-1.10
2023-01-20T18:41:52.974Z,-1.10
2023-01-20T18:44:21.138Z,-1.10
2023-01-20T18:46:49.523Z,-1.10
2023-01-20T18:49:18.149Z,-1.20
2023-01-20T18:51:45.339Z,-1.20
2023-01-20T18:54:17.615Z,-1.30
2023-01-20T18:56:45.136Z,-1.40
2023-01-20T18:59:13.095Z,-1.40
2023-01-20T19:01:42.066Z,-1.40
2023-01-20T19:04:12.212Z,-1.40
2023-01-20T19:06:41.647Z,-1.40
2023-01-20T19:09:09.896Z,-1.40
2023-01-20T19:11:40.886Z,-1.50
2023-01-20T19:14:11.927Z,-1.50
2023-01-20T19:16:42.429Z,-1.60
2023-01-20T19:19:11.891Z,-1.40
2023-01-20T19:21:39.254Z,-1.30
2023-01-20T19:24:08.116Z,-1.30
2023-01-20T19:26:39.102Z,-1.30
2023-01-20T19:29:09.306Z,-1.20
2023-01-20T19:31:40.199Z,-1.20
2023-01-20T19:34:08.436Z,-1.20
2023-01-20T19:36:37.016Z,-1.30
2023-01-20T19:39:05.024Z,-1.40
2023-01-20T19:41:36.495Z,-1.50
2023-01-20T19:44:06.813Z,-1.40
2023-01-20T19:46:37.481Z,-1.50
2023-01-20T19:49:04.778Z,-1.60
2023-01-20T19:51:32.590Z,-1.50
2023-01-20T19:54:01.579Z,-1.60
2023-01-20T19:56:34.313Z,-1.70
2023-01-20T19:59:04.358Z,-1.70
2023-01-20T20:01:33.620Z,-1.70
2023-01-20T20:04:09.079Z,-1.80
2023-01-20T20:06:39.062Z,-1.80
2023-01-20T20:09:14.505Z,-1.80
2023-01-20T20:11:42.255Z,-1.90
2023-01-20T20:14:13.354Z,-1.80
2023-01-20T20:16:40.925Z,-1.90
2023-01-20T20:19:10.095Z,-1.70
2023-01-20T20:21:37.171Z,-1.70
2023-01-20T20:24:08.034Z,-1.60
2023-01-20T20:26:37.042Z,-1.70
2023-01-20T20:29:06.027Z,-1.70
2023-01-20T20:31:34.553Z,-1.70
2023-01-20T20:34:03.094Z,-1.70
2023-01-20T20:36:34.093Z,-1.70
2023-01-20T20:39:03.584Z,-1.70
2023-01-20T20:41:35.486Z,-1.80
2023-01-20T20:44:03.799Z,-1.70
2023-01-20T20:46:32.330Z,-1.80
2023-01-20T20:49:01.219Z,-1.70
2023-01-20T20:51:37.270Z,-1.70
2023-01-20T20:54:09.435Z,-1.80
2023-01-20T20:56:36.683Z,-1.70
2023-01-20T20:59:04.036Z,-1.70
2023-01-20T21:01:33.749Z,-1.60
2023-01-20T21:04:02.314Z,-1.70
2023-01-20T21:06:30.843Z,-1.80
2023-01-20T21:08:58.935Z,-1.80
2023-01-20T21:11:26.535Z,-1.90
2023-01-20T21:13:53.799Z,-1.90
2023-01-20T21:16:23.469Z,-1.90
2023-01-20T21:18:53.842Z,-1.90
2023-01-20T21:21:21.329Z,-2.00
2023-01-20T21:23:56.330Z,-1.90
2023-01-20T21:26:25.896Z,-2.00
2023-01-20T21:28:54.474Z,-2.00
2023-01-20T21:31:26.820Z,-2.00
2023-01-20T21:34:00.644Z,-2.00
2023-01-20T21:36:29.315Z,-2.10
2023-01-20T21:38:56.558Z,-2.10
2023-01-20T21:41:23.808Z,-2.00
2023-01-20T21:44:09.549Z,-2.10
2023-01-20T21:46:39.811Z,-2.10
2023-01-20T21:49:26.670Z,-2.10
2023-01-20T21:52:13.487Z,-2.20
2023-01-20T21:54:41.582Z,-2.20
2023-01-20T21:57:10.305Z,-2.20
2023-01-20T21:59:37.631Z,-2.20
2023-01-20T22:02:05.058Z,-2.20
2023-01-20T22:04:33.722Z,-2.20
2023-01-20T22:07:00.815Z,-2.20
2023-01-20T22:09:27.893Z,-2.20
2023-01-20T22:11:55.187Z,-2.30
2023-01-20T22:14:24.451Z,-2.30
2023-01-20T22:16:51.751Z,-2.30
2023-01-20T22:19:18.931Z,-2.30
2023-01-20T22:21:46.072Z,-2.30
2023-01-20T22:24:19.399Z,-2.30
2023-01-20T22:26:49.103Z,-2.40
2023-01-20T22:29:21.494Z,-2.40
2023-01-20T22:31:52.841Z,-2.30
2023-01-20T22:34:20.538Z,-2.30
2023-01-20T22:36:48.069Z,-2.20
2023-01-20T22:39:16.031Z,-2.30
2023-01-20T22:41:44.884Z,-2.20
2023-01-20T22:44:11.944Z,-2.30
2023-01-20T22:46:39.163Z,-2.20
2023-01-20T22:49:06.460Z,-2.30
2023-01-20T22:51:33.675Z,-2.30
2023-01-20T22:54:02.244Z,-2.30
2023-01-20T22:56:31.818Z,-2.40
2023-01-20T22:58:59.813Z,-2.40
2023-01-20T23:01:30.704Z,-2.40
2023-01-20T23:04:00.137Z,-2.50
2023-01-20T23:06:29.380Z,-2.50
2023-01-20T23:08:56.525Z,-2.50
2023-01-20T23:11:25.044Z,-2.50
2023-01-20T23:13:53.035Z,-2.50
2023-01-20T23:16:22.627Z,-2.50
2023-01-20T23:18:51.337Z,-2.50
2023-01-20T23:21:19.149Z,-2.40
2023-01-20T23:23:46.452Z,-2.50
2023-01-20T23:26:18.616Z,-2.40
2023-01-20T23:28:47.594Z,-2.40
2023-01-20T23:31:16.368Z,-2.40
2023-01-20T23:33:44.580Z,-2.40
2023-01-20T23:36:19.008Z,-2.30
2023-01-20T23:38:46.199Z,-2.30
2023-01-20T23:41:14.796Z,-2.20
2023-01-20T23:43:42.297Z,-2.20
2023-01-20T23:46:10.241Z,-2.20
2023-01-20T23:48:38.030Z,-2.20
2023-01-20T23:51:06.631Z,-2.20
2023-01-20T23:53:36.993Z,-2.20
2023-01-20T23:56:07.750Z,-2.30
2023-01-20T23:58:35.089Z,-2.20
